createdAt,value
2023-08-14T00:02:14.557Z,29.04
2023-08-14T00:04:45.561Z,29.04
2023-08-14T00:07:16.710Z,29.05
2023-08-14T00:09:47.593Z,29.05
2023-08-14T00:12:18.706Z,29.07
2023-08-14T00:14:51.664Z,29.10
2023-08-14T00:17:22.344Z,29.16
2023-08-14T00:19:53.277Z,29.16
2023-08-14T00:22:24.218Z,29.16
2023-08-14T00:24:55.050Z,29.18
2023-08-14T00:27:27.530Z,29.20
2023-08-14T00:30:00.151Z,29.22
2023-08-14T00:32:31.226Z,29.28
2023-08-14T00:35:02.236Z,29.35
2023-08-14T00:37:44.307Z,29.32
2023-08-14T00:40:17.120Z,29.37
2023-08-14T00:42:49.663Z,29.40
2023-08-14T00:45:24.764Z,29.42
2023-08-14T00:47:59.523Z,29.45
2023-08-14T00:50:30.567Z,29.49
2023-08-14T00:53:03.443Z,29.51
2023-08-14T00:55:34.333Z,29.56
2023-08-14T00:58:05.217Z,29.63
2023-08-14T01:00:38.683Z,29.66
2023-08-14T01:03:10.148Z,29.71
2023-08-14T01:05:41.609Z,29.81
2023-08-14T01:08:12.667Z,29.82
2023-08-14T01:10:53.889Z,29.84
2023-08-14T01:13:33.831Z,29.84
2023-08-14T01:16:09.761Z,29.93
2023-08-14T01:18:42.210Z,30.06
2023-08-14T01:21:33.731Z,30.06
2023-08-14T01:24:19.929Z,30.23
2023-08-14T01:26:53.229Z,30.22
2023-08-14T01:29:24.467Z,30.22
2023-08-14T01:31:55.299Z,30.26
2023-08-14T01:34:26.850Z,30.39
2023-08-14T01:37:02.404Z,30.44
2023-08-14T01:39:42.312Z,30.44
2023-08-14T01:42:21.378Z,30.56
2023-08-14T01:44:52.935Z,30.64
2023-08-14T01:47:25.937Z,30.68
2023-08-14T01:49:57.791Z,30.70
2023-08-14T01:52:28.979Z,30.76
2023-08-14T01:55:03.447Z,30.80
2023-08-14T01:57:35.916Z,30.81
2023-08-14T02:00:10.603Z,30.91
2023-08-14T02:02:41.512Z,30.91
2023-08-14T02:05:12.483Z,30.98
2023-08-14T02:07:44.137Z,30.99
2023-08-14T02:10:15.380Z,31.01
2023-08-14T02:12:47.797Z,31.07
2023-08-14T02:15:19.510Z,31.11
2023-08-14T02:17:50.303Z,31.15
2023-08-14T02:20:21.380Z,31.17
2023-08-14T02:22:52.330Z,31.22
2023-08-14T02:25:23.177Z,31.31
2023-08-14T02:27:55.643Z,31.37
2023-08-14T02:30:26.477Z,31.37
2023-08-14T02:32:57.179Z,31.45
2023-08-14T02:35:27.998Z,31.50
2023-08-14T02:37:59.036Z,31.57
2023-08-14T02:40:30.393Z,31.56
2023-08-14T02:43:05.726Z,31.59
2023-08-14T02:45:36.820Z,31.61
2023-08-14T02:48:08.137Z,31.66
2023-08-14T02:50:39.061Z,31.69
2023-08-14T02:53:09.822Z,31.75
2023-08-14T02:55:40.532Z,31.79
2023-08-14T02:58:12.981Z,31.96
2023-08-14T03:00:43.677Z,32.03
2023-08-14T03:03:14.510Z,32.08
2023-08-14T03:05:47.239Z,32.10
2023-08-14T03:08:18.004Z,32.19
2023-08-14T03:10:48.501Z,32.33
2023-08-14T03:13:20.628Z,32.45
2023-08-14T03:15:51.211Z,32.49
2023-08-14T03:18:21.928Z,32.52
2023-08-14T03:20:53.316Z,32.59
2023-08-14T03:23:28.493Z,32.65
2023-08-14T03:25:59.245Z,32.68
2023-08-14T03:28:31.676Z,32.78
2023-08-14T03:31:03.189Z,32.74
2023-08-14T03:33:33.968Z,32.73
2023-08-14T03:36:04.906Z,32.72
2023-08-14T03:38:35.736Z,32.67
2023-08-14T03:41:07.342Z,32.70
2023-08-14T03:43:40.120Z,32.69
2023-08-14T03:46:10.909Z,32.66
2023-08-14T03:48:41.587Z,32.68
2023-08-14T03:51:12.627Z,32.74
2023-08-14T03:53:43.204Z,32.87
2023-08-14T03:56:13.894Z,33.01
2023-08-14T03:58:46.270Z,33.05
2023-08-14T04:01:16.999Z,33.07
2023-08-14T04:03:47.659Z,33.11
2023-08-14T04:06:18.478Z,33.26
2023-08-14T04:08:50.980Z,33.12
2023-08-14T04:11:22.280Z,33.03
2023-08-14T04:13:54.606Z,33.05
2023-08-14T04:16:25.304Z,33.12
2023-08-14T04:18:56.130Z,33.25
2023-08-14T04:21:26.902Z,33.32
2023-08-14T04:23:57.533Z,33.37
2023-08-14T04:26:28.533Z,33.49
2023-08-14T04:29:01.066Z,33.58
2023-08-14T04:31:30.903Z,33.70
2023-08-14T04:34:01.359Z,33.76
2023-08-14T04:36:33.737Z,33.83
2023-08-14T04:39:06.353Z,33.96
2023-08-14T04:41:37.640Z,34.08
2023-08-14T04:44:10.225Z,34.17
2023-08-14T04:46:53.931Z,34.25
2023-08-14T04:49:28.694Z,34.39
2023-08-14T04:51:59.436Z,34.32
2023-08-14T04:54:30.365Z,34.32
2023-08-14T04:57:01.153Z,34.40
2023-08-14T04:59:33.729Z,34.44
2023-08-14T05:02:04.679Z,34.47
2023-08-14T05:04:35.494Z,34.55
2023-08-14T05:07:06.387Z,34.58
2023-08-14T05:09:37.180Z,34.66
2023-08-14T05:12:08.980Z,34.69
2023-08-14T05:14:41.358Z,34.70
2023-08-14T05:17:11.208Z,34.65
2023-08-14T05:19:42.218Z,34.59
2023-08-14T05:22:13.079Z,34.54
2023-08-14T05:24:43.785Z,34.50
2023-08-14T05:27:14.475Z,34.39
2023-08-14T05:29:48.581Z,34.33
2023-08-14T05:32:19.777Z,34.29
2023-08-14T05:34:50.589Z,34.22
2023-08-14T05:37:21.705Z,34.28
2023-08-14T05:39:52.654Z,34.20
2023-08-14T05:42:24.135Z,34.16
2023-08-14T05:44:56.848Z,34.05
2023-08-14T05:47:28.115Z,33.95
2023-08-14T05:49:59.044Z,33.96
2023-08-14T05:52:30.145Z,33.95
2023-08-14T05:55:01.082Z,33.94
2023-08-14T05:57:32.126Z,33.95
2023-08-14T06:00:04.862Z,33.97
2023-08-14T06:02:35.710Z,33.98
2023-08-14T06:05:06.912Z,34.13
2023-08-14T06:07:38.133Z,34.11
2023-08-14T06:10:09.704Z,34.26
2023-08-14T06:12:40.374Z,34.20
2023-08-14T06:15:13.186Z,34.41
2023-08-14T06:17:44.286Z,34.42
2023-08-14T06:20:15.531Z,34.44
2023-08-14T06:22:47.615Z,34.46
2023-08-14T06:25:19.549Z,34.36
2023-08-14T06:27:50.313Z,34.50
2023-08-14T06:30:23.786Z,34.54
2023-08-14T06:32:54.483Z,34.58
2023-08-14T06:35:25.286Z,34.59
2023-08-14T06:37:56.065Z,34.49
2023-08-14T06:40:26.918Z,34.61
2023-08-14T06:42:57.956Z,34.61
2023-08-14T06:45:30.089Z,34.64
2023-08-14T06:48:00.666Z,34.66
2023-08-14T06:50:31.156Z,34.69
2023-08-14T06:53:01.727Z,34.80
2023-08-14T06:55:32.226Z,34.73
2023-08-14T06:58:02.653Z,34.68
2023-08-14T07:00:34.816Z,34.50
2023-08-14T07:03:05.526Z,34.64
2023-08-14T07:05:38.433Z,34.51
2023-08-14T07:08:09.118Z,34.59
2023-08-14T07:10:39.530Z,34.50
2023-08-14T07:13:10.656Z,34.64
2023-08-14T07:15:42.711Z,34.64
2023-08-14T07:18:13.186Z,34.77
2023-08-14T07:20:43.628Z,34.88
2023-08-14T07:23:15.034Z,34.77
2023-08-14T07:25:45.525Z,34.72
2023-08-14T07:28:16.048Z,34.73
2023-08-14T07:30:48.189Z,34.76
2023-08-14T07:33:18.720Z,34.85
2023-08-14T07:35:49.223Z,34.78
2023-08-14T07:38:19.811Z,34.77
2023-08-14T07:40:50.534Z,34.85
2023-08-14T07:43:21.808Z,34.95
2023-08-14T07:45:56.811Z,35.05
2023-08-14T07:48:27.362Z,35.00
2023-08-14T07:50:58.288Z,35.06
2023-08-14T07:53:31.760Z,35.02
2023-08-14T07:56:02.423Z,34.91
2023-08-14T07:58:33.140Z,34.95
2023-08-14T08:01:05.713Z,34.98
2023-08-14T08:03:36.328Z,35.07
2023-08-14T08:06:07.671Z,34.98
2023-08-14T08:08:38.316Z,34.91
2023-08-14T08:11:08.878Z,34.85
2023-08-14T08:13:39.854Z,34.72
2023-08-14T08:16:12.336Z,34.77
2023-08-14T08:18:42.911Z,34.62
2023-08-14T08:21:13.609Z,34.55
2023-08-14T08:23:44.454Z,34.51
2023-08-14T08:26:16.323Z,34.54
2023-08-14T08:28:47.171Z,34.45
2023-08-14T08:31:19.462Z,34.55
2023-08-14T08:33:50.134Z,34.36
2023-08-14T08:36:20.847Z,34.28
2023-08-14T08:38:51.432Z,34.29
2023-08-14T08:41:29.793Z,34.19
2023-08-14T08:44:03.310Z,34.03
2023-08-14T08:46:37.965Z,34.00
2023-08-14T08:49:09.798Z,33.87
2023-08-14T08:51:40.991Z,33.98
2023-08-14T08:54:12.604Z,33.94
2023-08-14T08:56:43.334Z,33.93
2023-08-14T08:59:14.903Z,33.86
2023-08-14T09:01:48.341Z,33.91
2023-08-14T09:04:19.427Z,33.92
2023-08-14T09:06:50.079Z,33.97
2023-08-14T09:09:21.688Z,33.96
2023-08-14T09:11:52.321Z,33.78
2023-08-14T09:14:25.428Z,33.68
2023-08-14T09:16:57.886Z,33.64
2023-08-14T09:19:27.445Z,33.60
2023-08-14T09:21:58.717Z,33.61
2023-08-14T09:24:29.298Z,33.55
2023-08-14T09:27:00.086Z,33.41
2023-08-14T09:29:33.934Z,33.28
2023-08-14T09:32:07.058Z,33.14
2023-08-14T09:34:40.125Z,33.27
2023-08-14T09:37:11.181Z,33.13
2023-08-14T09:39:42.301Z,32.92
2023-08-14T09:42:12.703Z,32.90
2023-08-14T09:44:44.544Z,32.81
2023-08-14T09:47:18.082Z,32.75
2023-08-14T09:49:50.432Z,31.66
2023-08-14T09:52:25.829Z,30.86
2023-08-14T09:55:03.353Z,30.37
2023-08-14T09:57:34.029Z,30.19
2023-08-14T10:00:05.427Z,30.15
2023-08-14T10:02:39.839Z,30.11
2023-08-14T10:05:11.941Z,29.81
2023-08-14T10:07:42.997Z,29.68
2023-08-14T10:10:13.784Z,29.64
2023-08-14T10:12:49.187Z,29.49
2023-08-14T10:15:23.645Z,29.50
2023-08-14T10:17:59.333Z,29.43
2023-08-14T10:20:31.248Z,29.41
2023-08-14T10:23:01.736Z,29.30
2023-08-14T10:25:32.508Z,29.26
2023-08-14T10:28:03.156Z,29.32
2023-08-14T10:30:33.820Z,29.30
2023-08-14T10:33:06.455Z,29.27
2023-08-14T10:35:46.519Z,29.32
2023-08-14T10:38:25.334Z,29.43
2023-08-14T10:40:59.972Z,29.40
2023-08-14T10:43:32.993Z,29.42
2023-08-14T10:46:10.239Z,29.43
2023-08-14T10:48:43.478Z,29.48
2023-08-14T10:51:15.750Z,29.51
2023-08-14T10:53:46.435Z,29.58
2023-08-14T10:56:17.114Z,29.65
2023-08-14T10:58:49.993Z,29.68
2023-08-14T11:01:21.323Z,29.75
2023-08-14T11:04:06.853Z,29.79
2023-08-14T11:07:07.799Z,29.80
2023-08-14T11:09:39.645Z,29.71
2023-08-14T11:12:11.591Z,29.75
2023-08-14T11:14:44.494Z,29.74
2023-08-14T11:17:15.126Z,29.74
2023-08-14T11:19:47.337Z,29.78
2023-08-14T11:22:18.136Z,29.78
2023-08-14T11:24:49.872Z,29.76
2023-08-14T11:27:20.483Z,29.71
2023-08-14T11:29:53.575Z,29.70
2023-08-14T11:32:26.052Z,29.78
2023-08-14T11:34:58.367Z,29.71
2023-08-14T11:37:29.154Z,29.67
2023-08-14T11:40:04.340Z,29.71
2023-08-14T11:42:34.997Z,29.71
2023-08-14T11:45:06.509Z,29.64
2023-08-14T11:47:39.371Z,29.66
2023-08-14T11:50:14.908Z,29.67
2023-08-14T11:52:45.702Z,29.66
2023-08-14T11:55:16.348Z,29.64
2023-08-14T11:57:47.409Z,29.57
2023-08-14T12:00:27.063Z,29.67
2023-08-14T12:03:00.411Z,29.66
2023-08-14T12:05:32.691Z,29.69
2023-08-14T12:08:03.769Z,29.64
2023-08-14T12:10:41.028Z,29.62
2023-08-14T12:13:11.475Z,29.63
2023-08-14T12:15:41.956Z,29.65
2023-08-14T12:18:16.448Z,29.78
2023-08-14T12:20:56.241Z,29.78
2023-08-14T12:23:27.013Z,29.72
2023-08-14T12:25:57.964Z,29.76
2023-08-14T12:28:30.347Z,29.83
2023-08-14T12:31:00.823Z,29.81
2023-08-14T12:33:31.321Z,29.89
2023-08-14T12:36:03.604Z,29.82
2023-08-14T12:38:34.065Z,29.90
2023-08-14T12:41:05.308Z,29.81
2023-08-14T12:43:40.171Z,29.79
2023-08-14T12:46:14.116Z,29.77
2023-08-14T12:48:44.642Z,29.80
2023-08-14T12:51:16.755Z,29.91
2023-08-14T12:53:47.366Z,29.88
2023-08-14T12:56:18.707Z,29.91
2023-08-14T12:58:50.103Z,29.79
2023-08-14T13:01:24.119Z,29.75
2023-08-14T13:03:58.801Z,29.78
2023-08-14T13:06:32.473Z,29.76
2023-08-14T13:09:02.145Z,29.85
2023-08-14T13:11:32.486Z,29.89
2023-08-14T13:14:03.015Z,29.88
2023-08-14T13:16:34.264Z,29.84
2023-08-14T13:19:04.730Z,29.87
2023-08-14T13:21:36.960Z,29.90
2023-08-14T13:24:08.802Z,29.81
2023-08-14T13:26:40.214Z,29.80
2023-08-14T13:29:11.193Z,29.83
2023-08-14T13:31:41.734Z,29.84
2023-08-14T13:34:12.257Z,29.87
2023-08-14T13:36:44.487Z,29.87
2023-08-14T13:39:15.936Z,29.87
2023-08-14T13:41:46.594Z,29.83
2023-08-14T13:44:17.040Z,29.88
2023-08-14T13:46:47.486Z,29.88
2023-08-14T13:49:20.076Z,29.85
2023-08-14T13:51:54.781Z,29.89
2023-08-14T13:54:25.189Z,29.83
2023-08-14T13:56:55.679Z,29.80
2023-08-14T13:59:26.067Z,29.79
2023-08-14T14:01:56.683Z,29.79
2023-08-14T14:04:28.230Z,29.83
2023-08-14T14:07:00.404Z,29.81
2023-08-14T14:09:30.920Z,29.84
2023-08-14T14:12:01.597Z,29.84
2023-08-14T14:14:32.158Z,29.84
2023-08-14T14:17:03.783Z,29.90
2023-08-14T14:19:34.285Z,29.88
2023-08-14T14:22:06.642Z,29.88
2023-08-14T14:24:37.609Z,29.85
2023-08-14T14:27:08.997Z,29.83
2023-08-14T14:29:39.438Z,29.84
2023-08-14T14:32:10.373Z,29.85
2023-08-14T14:34:40.873Z,29.86
2023-08-14T14:37:21.967Z,29.88
2023-08-14T14:39:56.246Z,29.84
2023-08-14T14:42:26.971Z,29.88
2023-08-14T14:44:57.716Z,29.86
2023-08-14T14:47:28.809Z,29.91
2023-08-14T14:50:00.569Z,29.88
2023-08-14T14:52:32.670Z,29.87
2023-08-14T14:55:03.227Z,29.89
2023-08-14T14:57:33.636Z,29.87
2023-08-14T15:00:04.220Z,29.87
2023-08-14T15:02:34.804Z,29.85
2023-08-14T15:05:07.007Z,29.85
2023-08-14T15:07:40.781Z,29.83
2023-08-14T15:10:11.612Z,29.85
2023-08-14T15:12:42.030Z,29.85
2023-08-14T15:15:12.864Z,29.83
2023-08-14T15:17:45.158Z,29.83
2023-08-14T15:20:16.382Z,29.85
2023-08-14T15:22:48.567Z,29.81
2023-08-14T15:25:20.586Z,29.81
2023-08-14T15:27:51.205Z,29.82
2023-08-14T15:30:21.745Z,29.84
2023-08-14T15:32:52.210Z,29.83
2023-08-14T15:35:22.834Z,29.82
2023-08-14T15:37:55.120Z,29.81
2023-08-14T15:40:27.190Z,29.83
2023-08-14T15:42:57.919Z,29.82
2023-08-14T15:45:28.662Z,29.83
2023-08-14T15:48:00.999Z,29.82
2023-08-14T15:50:31.620Z,29.81
2023-08-14T15:53:03.816Z,29.81
2023-08-14T15:55:34.357Z,29.79
2023-08-14T15:58:04.955Z,29.78
2023-08-14T16:00:35.482Z,29.79
2023-08-14T16:03:07.784Z,29.79
2023-08-14T16:05:38.717Z,29.79
2023-08-14T16:08:11.411Z,29.81
2023-08-14T16:10:40.961Z,29.79
2023-08-14T16:13:11.330Z,29.77
2023-08-14T16:15:41.824Z,29.78
2023-08-14T16:18:12.407Z,29.78
2023-08-14T16:20:43.055Z,29.77
2023-08-14T16:23:15.377Z,29.83
2023-08-14T16:25:46.013Z,29.79
2023-08-14T16:28:19.461Z,29.78
2023-08-14T16:30:50.018Z,29.77
2023-08-14T16:33:20.532Z,29.76
2023-08-14T16:35:51.319Z,29.76
2023-08-14T16:38:23.473Z,29.75
2023-08-14T16:40:54.357Z,29.74
2023-08-14T16:43:25.140Z,29.76
2023-08-14T16:45:55.531Z,29.76
2023-08-14T16:48:26.015Z,29.75
2023-08-14T16:50:56.745Z,29.75
2023-08-14T16:53:29.722Z,29.75
2023-08-14T16:56:00.411Z,29.74
2023-08-14T16:58:30.776Z,29.73
2023-08-14T17:01:01.579Z,29.72
2023-08-14T17:03:32.110Z,29.72
2023-08-14T17:06:02.964Z,29.69
2023-08-14T17:08:38.206Z,29.68
2023-08-14T17:11:09.701Z,29.69
2023-08-14T17:13:40.111Z,29.70
2023-08-14T17:16:12.920Z,29.69
2023-08-14T17:18:43.348Z,29.66
2023-08-14T17:21:13.873Z,29.63
2023-08-14T17:23:45.959Z,29.64
2023-08-14T17:26:16.490Z,29.64
2023-08-14T17:28:46.906Z,29.63
2023-08-14T17:31:17.535Z,29.60
2023-08-14T17:33:47.944Z,29.65
2023-08-14T17:36:18.513Z,29.53
2023-08-14T17:38:51.644Z,29.53
2023-08-14T17:41:22.196Z,29.52
2023-08-14T17:43:52.742Z,29.51
2023-08-14T17:46:23.615Z,29.53
2023-08-14T17:48:54.447Z,29.52
2023-08-14T17:51:25.082Z,29.50
2023-08-14T17:53:57.266Z,29.49
2023-08-14T17:56:28.134Z,29.48
2023-08-14T17:58:58.621Z,29.46
2023-08-14T18:01:31.078Z,29.48
2023-08-14T18:04:03.253Z,29.42
2023-08-14T18:06:33.757Z,29.42
2023-08-14T18:09:06.587Z,29.41
2023-08-14T18:11:37.429Z,29.39
2023-08-14T18:14:07.997Z,29.38
2023-08-14T18:16:38.628Z,29.37
2023-08-14T18:19:27.897Z,29.35
2023-08-14T18:21:59.598Z,29.34
2023-08-14T18:24:31.829Z,29.40
2023-08-14T18:27:02.343Z,29.36
2023-08-14T18:29:32.926Z,29.34
2023-08-14T18:32:03.530Z,29.32
2023-08-14T18:34:34.456Z,29.32
2023-08-14T18:37:05.079Z,29.26
2023-08-14T18:39:38.407Z,29.31
2023-08-14T18:42:08.988Z,29.28
2023-08-14T18:44:39.457Z,29.27
2023-08-14T18:47:10.108Z,29.26
2023-08-14T18:49:45.666Z,29.26
2023-08-14T18:52:16.301Z,29.24
2023-08-14T18:54:49.231Z,29.25
2023-08-14T18:57:20.148Z,29.22
2023-08-14T18:59:51.142Z,29.23
2023-08-14T19:02:21.766Z,29.20
2023-08-14T19:04:52.440Z,29.20
2023-08-14T19:07:22.999Z,29.22
2023-08-14T19:09:55.229Z,29.19
2023-08-14T19:12:26.116Z,29.18
2023-08-14T19:14:56.744Z,29.18
2023-08-14T19:17:27.360Z,29.17
2023-08-14T19:19:57.999Z,29.17
2023-08-14T19:22:28.624Z,29.17
2023-08-14T19:25:01.047Z,29.17
2023-08-14T19:27:32.644Z,29.18
2023-08-14T19:30:03.460Z,29.13
2023-08-14T19:32:33.949Z,29.16
2023-08-14T19:35:04.386Z,29.14
2023-08-14T19:37:35.376Z,29.13
2023-08-14T19:40:12.499Z,29.12
2023-08-14T19:42:44.572Z,29.10
2023-08-14T19:45:15.289Z,29.10
2023-08-14T19:47:46.069Z,29.09
2023-08-14T19:50:16.953Z,29.07
2023-08-14T19:52:47.549Z,29.08
2023-08-14T19:55:19.926Z,29.07
2023-08-14T19:57:50.482Z,29.07
2023-08-14T20:00:21.366Z,29.05
2023-08-14T20:02:55.102Z,29.02
2023-08-14T20:05:25.957Z,29.02
2023-08-14T20:07:57.165Z,29.02
2023-08-14T20:10:29.467Z,29.00
2023-08-14T20:13:00.065Z,29.01
2023-08-14T20:15:30.720Z,29.02
2023-08-14T20:18:01.345Z,28.99
2023-08-14T20:20:31.996Z,28.98
2023-08-14T20:23:02.621Z,28.97
2023-08-14T20:25:34.912Z,28.96
2023-08-14T20:28:06.006Z,28.96
2023-08-14T20:30:44.467Z,28.98
2023-08-14T20:33:16.949Z,28.96
2023-08-14T20:35:48.388Z,28.93
2023-08-14T20:38:19.225Z,28.93
2023-08-14T20:40:56.953Z,28.91
2023-08-14T20:43:33.458Z,28.91
2023-08-14T20:46:03.937Z,28.93
2023-08-14T20:48:34.479Z,28.90
2023-08-14T20:51:05.619Z,28.90
2023-08-14T20:53:36.381Z,28.88
2023-08-14T20:56:08.776Z,28.88
2023-08-14T20:58:39.370Z,28.89
2023-08-14T21:01:10.063Z,28.87
2023-08-14T21:03:43.057Z,28.87
2023-08-14T21:06:14.477Z,28.88
2023-08-14T21:08:45.745Z,28.85
2023-08-14T21:11:17.960Z,28.84
2023-08-14T21:13:51.650Z,28.85
2023-08-14T21:16:22.183Z,28.85
2023-08-14T21:18:55.204Z,28.83
2023-08-14T21:21:25.638Z,28.80
2023-08-14T21:23:55.998Z,28.80
2023-08-14T21:26:28.073Z,28.80
2023-08-14T21:28:58.481Z,28.79
2023-08-14T21:31:28.933Z,28.80
2023-08-14T21:33:59.408Z,28.80
2023-08-14T21:36:29.843Z,28.79
2023-08-14T21:39:00.408Z,28.79
2023-08-14T21:41:33.255Z,28.78
2023-08-14T21:44:03.773Z,28.78
2023-08-14T21:46:35.547Z,28.78
2023-08-14T21:49:06.512Z,28.78
2023-08-14T21:51:37.033Z,28.77
2023-08-14T21:54:10.014Z,28.76
2023-08-14T21:56:42.223Z,28.75
2023-08-14T21:59:12.680Z,28.74
2023-08-14T22:01:45.140Z,28.74
2023-08-14T22:04:15.737Z,28.72
2023-08-14T22:06:46.395Z,28.71
2023-08-14T22:09:16.955Z,28.71
2023-08-14T22:11:49.139Z,28.72
2023-08-14T22:14:20.178Z,28.70
2023-08-14T22:16:50.774Z,28.68
2023-08-14T22:19:21.357Z,28.69
2023-08-14T22:21:51.779Z,28.68
2023-08-14T22:24:38.309Z,28.68
2023-08-14T22:27:12.705Z,28.67
2023-08-14T22:29:43.556Z,28.67
2023-08-14T22:32:14.041Z,28.67
2023-08-14T22:34:44.642Z,28.67
2023-08-14T22:37:15.122Z,28.67
2023-08-14T22:39:45.551Z,28.65
2023-08-14T22:42:18.369Z,28.65
2023-08-14T22:44:48.813Z,28.62
2023-08-14T22:47:19.547Z,28.61
2023-08-14T22:49:50.185Z,28.63
2023-08-14T22:52:20.624Z,28.61
2023-08-14T22:54:51.174Z,28.61
2023-08-14T22:57:23.255Z,28.61
2023-08-14T22:59:53.611Z,28.61
2023-08-14T23:02:24.028Z,28.60
2023-08-14T23:04:54.529Z,28.59
2023-08-14T23:07:24.942Z,28.58
2023-08-14T23:09:55.469Z,28.57
2023-08-14T23:12:27.620Z,28.56
2023-08-14T23:14:58.906Z,28.56
2023-08-14T23:17:29.334Z,28.56
2023-08-14T23:19:59.786Z,28.55
2023-08-14T23:22:30.276Z,28.57
2023-08-14T23:25:00.720Z,28.57
2023-08-14T23:27:33.138Z,28.56
2023-08-14T23:30:03.636Z,28.56
2023-08-14T23:32:34.044Z,28.55
2023-08-14T23:35:04.470Z,28.56
2023-08-14T23:37:34.892Z,28.57
2023-08-14T23:40:06.504Z,28.56
2023-08-14T23:42:40.383Z,28.58
2023-08-14T23:45:11.378Z,28.58
2023-08-14T23:47:41.915Z,28.58
2023-08-14T23:50:12.646Z,28.60
2023-08-14T23:52:43.155Z,28.61
2023-08-14T23:55:13.673Z,28.61
2023-08-14T23:57:46.045Z,28.59
